Time;durP1;ratioP1;P1;durP2;ratioP2;P2;SDS_P1;SDS_P2;PMS_P1;PMS_P2;Temp;Humidity;BMP_temperature;BMP_pressure;BME280_temperature;BME280_humidity;BME280_pressure;Samples;Min_cycle;Max_cycle;Signal;HPM_P1;HPM_P2
2022/01/27 00:01:17;;;;;;;15.23;4.47;;;;;;;5.93;100.00;101388.53;4964735;28;20273;-70
2022/01/27 00:04:00;;;;;;;12.82;5.43;;;;;;;6.05;100.00;101382.63;4973249;28;20038;-71
2022/01/27 00:06:26;;;;;;;14.55;5.05;;;;;;;5.93;100.00;101374.38;4967932;28;20581;-71
2022/01/27 00:08:57;;;;;;;14.00;4.70;;;;;;;5.98;100.00;101375.03;4971588;28;20042;-70
2022/01/27 00:11:22;;;;;;;;;;;;;;;5.99;100.00;101381.16;4966178;28;20039;-71
2022/01/27 00:13:49;;;;;;;18.13;4.28;;;;;;;6.08;100.00;101371.31;4984603;28;20009;-70
2022/01/27 00:16:19;;;;;;;20.63;5.30;;;;;;;6.19;100.00;101378.00;4969663;28;20050;-70
2022/01/27 00:18:48;;;;;;;22.77;5.70;;;;;;;6.14;100.00;101375.44;4977124;28;21133;-70
2022/01/27 00:21:17;;;;;;;18.85;5.75;;;;;;;6.17;100.00;101348.91;4963736;28;20061;-70
2022/01/27 00:23:44;;;;;;;14.90;5.25;;;;;;;6.24;100.00;101341.22;4982680;28;20121;-69
2022/01/27 00:26:11;;;;;;;15.95;5.18;;;;;;;6.22;100.00;101331.91;4959044;28;20042;-69
2022/01/27 00:28:37;;;;;;;17.30;4.55;;;;;;;6.33;100.00;101341.22;4957770;28;20042;-69
2022/01/27 00:31:03;;;;;;;12.30;4.82;;;;;;;6.24;100.00;101322.50;4981802;28;20065;-70
2022/01/27 00:33:29;;;;;;;17.80;5.80;;;;;;;6.19;100.00;101319.16;4978806;28;20105;-70
2022/01/27 00:35:54;;;;;;;12.07;4.28;;;;;;;6.23;100.00;101314.78;4971002;28;20513;-70
2022/01/27 00:38:20;;;;;;;19.13;6.05;;;;;;;6.23;100.00;101299.50;4982539;28;20034;-70
2022/01/27 00:40:45;;;;;;;16.85;5.50;;;;;;;6.12;100.00;101273.34;4961448;28;20078;-71
2022/01/27 00:43:11;;;;;;;14.07;5.40;;;;;;;6.17;100.00;101278.56;4980055;28;20088;-71
2022/01/27 00:45:37;;;;;;;13.23;5.45;;;;;;;6.17;100.00;101266.00;4979402;28;20509;-70
2022/01/27 00:48:03;;;;;;;21.33;5.70;;;;;;;6.22;100.00;101265.84;4970636;28;20057;-70
2022/01/27 00:50:31;;;;;;;15.55;5.65;;;;;;;6.22;100.00;101259.72;4972766;28;20046;-69
2022/01/27 00:52:58;;;;;;;20.77;6.30;;;;;;;6.26;100.00;101256.13;4982215;28;20050;-69
2022/01/27 00:55:25;;;;;;;12.57;5.47;;;;;;;6.16;100.00;101256.41;4982095;28;20042;-69
2022/01/27 01:00:23;;;;;;;23.65;5.60;;;;;;;6.14;100.00;101258.59;4978722;28;20042;-69
2022/01/27 01:02:59;;;;;;;16.20;5.25;;;;;;;6.20;100.00;101256.56;4957262;28;20043;-70
2022/01/27 01:07:54;;;;;;;15.10;5.50;;;;;;;6.23;100.00;101248.69;4983273;28;20115;-70
2022/01/27 01:11:04;;;;;;;14.90;6.10;;;;;;;6.19;100.00;101238.94;4938055;28;20082;-71
2022/01/27 01:15:36;;;;;;;18.65;6.35;;;;;;;6.20;100.00;101246.66;4965195;28;20031;-70
2022/01/27 01:31:33;;;;;;;12.50;5.10;;;;;;;6.07;100.00;101212.03;4961575;28;20043;-71
2022/01/27 01:34:22;;;;;;;14.60;5.77;;;;;;;6.08;100.00;101198.34;4978759;28;20108;-71
2022/01/27 01:36:55;;;;;;;11.60;4.50;;;;;;;6.01;100.00;101189.19;4981557;28;20042;-69
2022/01/27 01:39:26;;;;;;;24.67;6.32;;;;;;;6.01;100.00;101189.19;4982805;28;20096;-71
2022/01/27 01:41:52;;;;;;;24.58;6.60;;;;;;;6.01;100.00;101191.88;4981220;28;20165;-70
2022/01/27 01:44:19;;;;;;;22.88;6.28;;;;;;;5.96;100.00;101197.38;4975063;28;20042;-70
2022/01/27 01:46:44;;;;;;;23.90;6.47;;;;;;;5.97;100.00;101178.34;4977551;28;20037;-70
2022/01/27 01:49:11;;;;;;;16.25;4.88;;;;;;;6.11;100.00;101186.25;4978014;28;20442;-69
2022/01/27 01:51:38;;;;;;;20.98;6.70;;;;;;;6.09;100.00;101188.44;4981538;28;20069;-69
2022/01/27 01:54:06;;;;;;;16.40;7.07;;;;;;;6.12;100.00;101177.09;4965676;28;20049;-70
2022/01/27 01:56:32;;;;;;;14.73;5.50;;;;;;;6.13;100.00;101173.34;4960169;28;20082;-70
2022/01/27 01:58:58;;;;;;;21.45;7.57;;;;;;;6.22;100.00;101176.81;4976970;28;20046;-72
2022/01/27 02:01:24;;;;;;;21.85;8.27;;;;;;;6.24;100.00;101171.94;4963774;28;20042;-69
2022/01/27 02:03:50;;;;;;;24.05;8.30;;;;;;;6.32;100.00;101173.84;4979118;28;20034;-69
2022/01/27 02:07:02;;;;;;;21.15;7.30;;;;;;;6.17;100.00;101167.09;4962726;28;20022;-70
2022/01/27 02:20:04;;;;;;;22.45;7.63;;;;;;;6.16;100.00;101132.63;4981011;28;20057;-71
2022/01/27 02:22:29;;;;;;;16.27;5.82;;;;;;;6.07;100.00;101151.34;4971944;28;20034;-70
2022/01/27 02:24:55;;;;;;;25.02;7.65;;;;;;;6.10;100.00;101141.88;4959848;28;20109;-70
2022/01/27 02:27:21;;;;;;;25.27;7.57;;;;;;;6.24;100.00;101147.88;4963130;28;20130;-70
2022/01/27 02:29:47;;;;;;;24.58;7.63;;;;;;;6.31;100.00;101149.00;4977158;28;20392;-69
2022/01/27 02:32:14;;;;;;;22.95;7.90;;;;;;;6.16;100.00;101133.41;4962474;28;20030;-69
2022/01/27 02:34:41;;;;;;;15.30;6.50;;;;;;;6.09;100.00;101129.63;4973599;28;20607;-71
2022/01/27 02:37:07;;;;;;;24.15;8.48;;;;;;;6.21;100.00;101116.44;4980133;28;20056;-70
2022/01/27 02:39:33;;;;;;;18.45;6.68;;;;;;;6.24;100.00;101123.81;4964453;28;20113;-69
2022/01/27 02:42:11;;;;;;;20.85;8.18;;;;;;;6.34;100.00;101118.16;4960983;28;20130;-70
2022/01/27 02:44:45;;;;;;;23.15;7.57;;;;;;;6.19;100.00;101102.59;4980971;28;20039;-70
2022/01/27 02:47:15;;;;;;;19.10;7.45;;;;;;;6.35;100.00;101112.50;4962923;28;20038;-69
2022/01/27 02:49:41;;;;;;;12.13;5.50;;;;;;;6.37;100.00;101098.81;4979711;28;20046;-70
2022/01/27 02:52:07;;;;;;;19.88;5.47;;;;;;;6.50;100.00;101113.94;4962985;28;20050;-69
2022/01/27 02:54:32;;;;;;;17.83;7.45;;;;;;;6.52;100.00;101074.28;4972009;28;20462;-69
2022/01/27 02:56:58;;;;;;;21.60;5.05;;;;;;;6.52;100.00;101081.50;4980776;28;20030;-71
2022/01/27 02:59:23;;;;;;;17.83;6.43;;;;;;;6.52;100.00;101090.31;4974710;28;20093;-70
2022/01/27 03:01:50;;;;;;;24.88;6.72;;;;;;;6.34;100.00;101080.72;4979266;28;20034;-69
2022/01/27 03:04:17;;;;;;;6.25;3.38;;;;;;;6.41;100.00;101078.34;4980486;28;20053;-70
2022/01/27 03:06:44;;;;;;;14.63;6.45;;;;;;;6.33;100.00;101081.81;4980310;28;20034;-70
2022/01/27 03:09:09;;;;;;;24.83;7.43;;;;;;;6.35;100.00;101077.72;4959238;28;20127;-70
2022/01/27 03:11:43;;;;;;;20.10;6.70;;;;;;;6.48;100.00;101085.91;4970418;28;20135;-71
2022/01/27 03:14:08;;;;;;;19.10;7.05;;;;;;;6.39;100.00;101073.31;4979032;28;20113;-70
2022/01/27 03:16:34;;;;;;;17.42;5.90;;;;;;;6.61;100.00;101061.66;4980988;28;20117;-70
2022/01/27 03:18:59;;;;;;;19.25;6.80;;;;;;;6.57;100.00;101060.72;4962889;28;20042;-70
2022/01/27 03:21:25;;;;;;;29.23;8.52;;;;;;;6.56;100.00;101050.34;4957125;28;20403;-70
2022/01/27 03:23:51;;;;;;;20.17;7.45;;;;;;;6.57;100.00;101044.66;4972756;28;20050;-70
2022/01/27 03:26:16;;;;;;;24.15;6.97;;;;;;;6.58;100.00;101048.91;4959567;28;20051;-71
2022/01/27 03:28:46;;;;;;;16.92;6.68;;;;;;;6.55;100.00;101035.38;4970585;28;20039;-70
2022/01/27 03:31:12;;;;;;;20.45;6.93;;;;;;;6.54;100.00;101034.63;4972788;28;20816;-69
2022/01/27 03:33:39;;;;;;;18.92;7.38;;;;;;;6.38;100.00;101042.34;4972500;28;20034;-69
2022/01/27 03:36:05;;;;;;;28.23;7.78;;;;;;;6.45;100.00;101038.38;4962469;28;20026;-70
2022/01/27 03:38:30;;;;;;;22.90;7.38;;;;;;;6.44;100.00;101015.44;4978930;28;20499;-69
2022/01/27 03:40:55;;;;;;;17.30;6.18;;;;;;;6.45;100.00;101025.81;4972012;28;20045;-69
2022/01/27 03:43:21;;;;;;;20.13;6.97;;;;;;;6.38;100.00;101015.59;4963016;28;20519;-69
2022/01/27 03:45:46;;;;;;;16.08;5.68;;;;;;;6.56;100.00;100996.84;4979761;28;20125;-69
2022/01/27 03:48:11;;;;;;;14.27;5.95;;;;;;;6.49;100.00;101029.41;4979546;28;20043;-69
2022/01/27 03:50:37;;;;;;;12.40;5.57;;;;;;;6.33;100.00;101021.09;4960294;28;20038;-69
2022/01/27 03:53:03;;;;;;;19.83;6.75;;;;;;;6.39;100.00;101005.66;4975851;28;20030;-69
2022/01/27 03:55:28;;;;;;;23.55;8.45;;;;;;;6.36;100.00;101004.44;4962835;28;20476;-69
2022/01/27 03:57:54;;;;;;;16.58;6.65;;;;;;;6.50;100.00;101000.78;4961536;28;20088;-69
2022/01/27 04:00:19;;;;;;;24.65;7.05;;;;;;;6.38;100.00;101010.25;4963820;28;20547;-69
2022/01/27 04:03:06;;;;;;;21.05;6.90;;;;;;;6.42;100.00;100993.56;4978455;28;20069;-69
2022/01/27 04:05:37;;;;;;;13.27;5.30;;;;;;;6.57;100.00;100980.47;4979514;28;20527;-70
2022/01/27 04:08:07;;;;;;;;;;;;;;;6.53;100.00;100979.53;4961969;28;20060;-69
2022/01/27 04:10:33;;;;;;;17.50;5.32;;;;;;;6.44;100.00;100984.13;4962549;28;20362;-69
2022/01/27 04:12:59;;;;;;;21.98;7.75;;;;;;;6.42;100.00;100985.53;4962190;28;20042;-70
2022/01/27 04:15:25;;;;;;;18.27;7.07;;;;;;;6.47;100.00;100983.47;4978536;28;20097;-69
2022/01/27 04:17:51;;;;;;;24.38;7.35;;;;;;;6.25;100.00;100984.47;4978980;28;20030;-67
2022/01/27 04:20:17;;;;;;;18.60;7.13;;;;;;;6.20;100.00;100978.50;4982428;28;20108;-69
2022/01/27 04:22:42;;;;;;;24.38;7.47;;;;;;;6.23;100.00;100962.59;4975584;28;20506;-68
2022/01/27 04:25:08;;;;;;;27.70;7.80;;;;;;;6.23;100.00;100972.53;4982506;28;20081;-69
2022/01/27 04:27:38;;;;;;;17.77;6.72;;;;;;;6.33;100.00;100972.16;4983151;28;20576;-69
2022/01/27 04:30:07;;;;;;;21.70;6.53;;;;;;;6.28;100.00;100975.03;4961477;28;20042;-69
2022/01/27 04:32:40;;;;;;;14.73;6.55;;;;;;;6.28;100.00;100965.13;4974630;28;20051;-69
2022/01/27 04:35:09;;;;;;;20.98;6.50;;;;;;;6.25;100.00;100959.63;4965915;28;20534;-69
2022/01/27 04:37:40;;;;;;;22.45;5.75;;;;;;;6.30;100.00;100964.81;4966000;28;20456;-68
2022/01/27 04:40:12;;;;;;;21.08;6.53;;;;;;;6.33;100.00;100961.47;4964259;28;20042;-69
2022/01/27 04:45:27;;;;;;;17.23;5.18;;;;;;;6.39;100.00;100949.50;4964598;28;20034;-70
2022/01/27 04:48:02;;;;;;;20.83;7.03;;;;;;;6.23;100.00;100951.91;4962205;28;20047;-69
2022/01/27 04:50:28;;;;;;;18.35;6.57;;;;;;;6.24;100.00;100939.31;4966200;28;20038;-69
2022/01/27 04:52:55;;;;;;;24.25;7.43;;;;;;;6.19;100.00;100936.84;4976133;28;20167;-69
2022/01/27 04:55:23;;;;;;;17.88;6.50;;;;;;;6.24;100.00;100915.25;4966346;28;20129;-69
2022/01/27 04:57:55;;;;;;;18.27;5.53;;;;;;;6.13;100.00;100930.88;4983205;28;20045;-69
2022/01/27 05:00:21;;;;;;;13.73;5.55;;;;;;;6.05;100.00;100918.31;4979568;28;20046;-69
2022/01/27 05:02:56;;;;;;;26.52;7.40;;;;;;;6.05;100.00;100901.47;4968009;28;20097;-68
2022/01/27 05:05:22;;;;;;;16.00;6.82;;;;;;;6.14;100.00;100896.88;4978942;28;20046;-69
2022/01/27 05:07:55;;;;;;;12.25;4.65;;;;;;;6.17;100.00;100904.28;4975607;28;20064;-69
2022/01/27 05:10:24;;;;;;;18.23;5.70;;;;;;;6.18;100.00;100917.31;4969459;28;21396;-70
2022/01/27 05:12:53;;;;;;;15.27;6.10;;;;;;;6.31;100.00;100904.84;4978130;28;20027;-69
2022/01/27 05:15:18;;;;;;;15.55;6.70;;;;;;;6.22;100.00;100890.72;4969394;28;20503;-69
2022/01/27 05:17:43;;;;;;;22.55;6.05;;;;;;;6.05;100.00;100901.47;4964887;28;20034;-70
2022/01/27 05:20:10;;;;;;;13.88;4.85;;;;;;;6.13;100.00;100881.97;4978636;28;20034;-70
2022/01/27 05:22:35;;;;;;;10.55;4.55;;;;;;;6.27;100.00;100885.22;4980205;28;20097;-70
2022/01/27 05:25:01;;;;;;;11.30;4.90;;;;;;;6.17;100.00;100890.91;4975421;28;20034;-70
2022/01/27 05:27:26;;;;;;;9.95;4.47;;;;;;;6.14;100.00;100883.53;4976685;28;20113;-69
2022/01/27 05:29:52;;;;;;;12.20;4.75;;;;;;;6.09;100.00;100886.38;4983149;28;20130;-71
2022/01/27 05:32:18;;;;;;;14.77;5.20;;;;;;;6.07;100.00;100877.88;4974549;28;20525;-70
2022/01/27 05:34:44;;;;;;;12.95;4.75;;;;;;;6.19;100.00;100880.69;4969898;28;20034;-71
2022/01/27 05:37:09;;;;;;;9.90;4.80;;;;;;;6.05;100.00;100867.53;4976498;28;20563;-71
2022/01/27 05:39:35;;;;;;;11.45;5.20;;;;;;;6.10;100.00;100877.25;4965078;28;20073;-70
2022/01/27 05:42:00;;;;;;;12.90;4.00;;;;;;;6.24;100.00;100872.47;4974850;28;20097;-70
2022/01/27 05:44:26;;;;;;;17.63;4.88;;;;;;;6.21;100.00;100876.56;4972187;28;20057;-70
2022/01/27 05:46:51;;;;;;;18.02;5.93;;;;;;;6.09;100.00;100870.34;4976116;28;20037;-71
2022/01/27 05:49:17;;;;;;;16.20;5.60;;;;;;;6.12;100.00;100873.16;4977820;28;20125;-70
2022/01/27 05:51:42;;;;;;;15.20;5.90;;;;;;;6.19;100.00;100859.31;4972739;28;20030;-71
2022/01/27 05:54:10;;;;;;;16.67;5.35;;;;;;;6.22;100.00;100864.00;4972190;28;20039;-70
2022/01/27 05:56:36;;;;;;;10.57;4.35;;;;;;;6.29;100.00;100866.97;4980215;28;20038;-70
2022/01/27 05:59:01;;;;;;;11.52;5.18;;;;;;;6.14;100.00;100857.59;4979272;28;20062;-71
2022/01/27 06:01:27;;;;;;;12.77;5.20;;;;;;;5.96;100.00;100849.94;4966171;28;20078;-70
2022/01/27 06:03:52;;;;;;;12.98;4.40;;;;;;;5.95;100.00;100853.69;4977546;28;20487;-71
2022/01/27 06:06:18;;;;;;;14.10;5.50;;;;;;;5.95;100.00;100845.69;4981077;28;20033;-71
2022/01/27 06:08:44;;;;;;;15.40;5.25;;;;;;;6.07;100.00;100835.13;4973769;28;20507;-72
2022/01/27 06:11:10;;;;;;;13.20;3.97;;;;;;;5.93;100.00;100839.88;4969488;28;20066;-71
2022/01/27 06:13:36;;;;;;;16.58;5.57;;;;;;;5.99;100.00;100830.59;4964786;28;20062;-72
2022/01/27 06:16:08;;;;;;;14.07;4.70;;;;;;;6.16;100.00;100846.56;4964249;28;20039;-71
2022/01/27 06:18:34;;;;;;;10.35;4.45;;;;;;;6.10;100.00;100827.25;4961985;28;20066;-71
2022/01/27 06:21:03;;;;;;;11.50;4.45;;;;;;;6.03;100.00;100818.16;4942891;28;20717;-72
2022/01/27 06:23:28;;;;;;;11.25;3.97;;;;;;;6.02;100.00;100817.38;4943192;28;20031;-72
2022/01/27 06:25:54;;;;;;;9.68;3.78;;;;;;;5.97;100.00;100806.06;4957372;28;20045;-72
2022/01/27 06:28:19;;;;;;;7.60;3.53;;;;;;;6.17;100.00;100808.03;4983267;28;20446;-72
2022/01/27 06:30:45;;;;;;;10.30;4.53;;;;;;;6.11;100.00;100810.13;4973335;28;20550;-71
2022/01/27 06:33:11;;;;;;;12.50;4.22;;;;;;;6.00;100.00;100810.78;4955587;28;20455;-72
2022/01/27 06:35:37;;;;;;;9.88;4.00;;;;;;;6.16;100.00;100806.47;4973254;28;20041;-72
2022/01/27 06:38:03;;;;;;;12.50;4.13;;;;;;;6.08;100.00;100793.91;4974868;28;20035;-72
2022/01/27 06:40:29;;;;;;;12.05;4.35;;;;;;;5.93;100.00;100797.13;4975686;28;20038;-73
2022/01/27 06:42:55;;;;;;;11.38;3.70;;;;;;;6.09;100.00;100792.81;4967547;28;20041;-71
2022/01/27 06:45:20;;;;;;;12.93;4.38;;;;;;;6.13;100.00;100807.13;4966330;28;20438;-72
2022/01/27 06:47:46;;;;;;;11.85;4.53;;;;;;;6.06;100.00;100788.09;4975078;28;20125;-72
2022/01/27 06:50:11;;;;;;;9.57;3.92;;;;;;;6.24;100.00;100797.63;4957040;28;20562;-71
2022/01/27 06:52:37;;;;;;;9.95;3.97;;;;;;;6.03;100.00;100791.44;4974245;28;20041;-72
2022/01/27 06:55:04;;;;;;;10.07;3.83;;;;;;;6.08;100.00;100788.56;4960286;28;20038;-73
2022/01/27 06:57:30;;;;;;;7.85;3.45;;;;;;;6.19;100.00;100798.56;4968363;28;20502;-72
2022/01/27 06:59:55;;;;;;;9.95;4.25;;;;;;;6.08;100.00;100794.69;4979800;28;20035;-71
2022/01/27 07:02:21;;;;;;;12.63;5.13;;;;;;;6.05;100.00;100795.34;4981254;28;20034;-72
2022/01/27 07:04:46;;;;;;;10.23;4.80;;;;;;;6.06;100.00;100782.75;4974217;28;20085;-72
2022/01/27 07:07:13;;;;;;;13.98;4.80;;;;;;;5.98;100.00;100778.25;4961780;28;20510;-72
2022/01/27 07:09:41;;;;;;;19.23;5.35;;;;;;;5.93;100.00;100784.53;4980210;28;20065;-73
2022/01/27 07:12:08;;;;;;;14.80;5.28;;;;;;;6.03;100.00;100783.41;4975376;28;20073;-71
2022/01/27 07:14:33;;;;;;;7.20;3.50;;;;;;;6.06;100.00;100780.09;4980408;28;20031;-73
2022/01/27 07:17:00;;;;;;;9.88;4.18;;;;;;;5.98;100.00;100778.25;4978097;28;20391;-73
2022/01/27 07:19:26;;;;;;;9.30;4.18;;;;;;;5.94;100.00;100774.66;4976258;28;20050;-72
2022/01/27 07:21:51;;;;;;;13.00;4.68;;;;;;;5.94;100.00;100769.31;4978127;28;20121;-73
2022/01/27 07:24:17;;;;;;;11.43;4.15;;;;;;;6.01;100.00;100774.94;4961595;28;20046;-73
2022/01/27 07:26:42;;;;;;;8.88;4.60;;;;;;;6.23;100.00;100769.34;4974054;28;20034;-71
2022/01/27 07:29:08;;;;;;;11.82;3.90;;;;;;;6.28;100.00;100771.81;4969343;28;20089;-72
2022/01/27 07:31:33;;;;;;;16.38;4.85;;;;;;;6.14;100.00;100765.91;4963422;28;20144;-72
2022/01/27 07:33:59;;;;;;;12.27;4.82;;;;;;;6.31;100.00;100765.81;4970961;28;20488;-71
2022/01/27 07:36:24;;;;;;;9.43;4.10;;;;;;;6.35;100.00;100764.06;4970315;28;20065;-73
2022/01/27 07:38:50;;;;;;;10.18;3.47;;;;;;;6.32;100.00;100762.03;4962446;28;20038;-72
2022/01/27 07:41:17;;;;;;;11.65;4.10;;;;;;;6.28;100.00;100766.47;4958607;28;20072;-73
2022/01/27 07:43:44;;;;;;;9.57;3.35;;;;;;;6.26;100.00;100757.97;4960791;28;20073;-72
2022/01/27 07:46:13;;;;;;;5.18;2.42;;;;;;;6.31;100.00;100752.44;4979697;28;20042;-73
2022/01/27 07:48:40;;;;;;;9.57;4.57;;;;;;;6.26;100.00;100752.63;4962049;28;20039;-73
2022/01/27 07:51:07;;;;;;;7.00;3.83;;;;;;;6.36;100.00;100742.34;4970345;28;20070;-71
2022/01/27 07:53:34;;;;;;;6.80;3.17;;;;;;;6.34;100.00;100746.47;4969311;28;20404;-72
2022/01/27 07:56:02;;;;;;;11.80;3.83;;;;;;;6.41;100.00;100751.31;4947148;28;20034;-70
2022/01/27 07:58:27;;;;;;;6.30;3.55;;;;;;;6.41;100.00;100752.06;4961005;28;20026;-72
2022/01/27 08:00:53;;;;;;;10.63;3.83;;;;;;;6.37;100.00;100746.59;4955206;28;21476;-72
2022/01/27 08:03:18;;;;;;;11.18;3.50;;;;;;;6.36;100.00;100731.66;4983901;28;20099;-71
2022/01/27 08:05:43;;;;;;;9.88;4.03;;;;;;;6.37;100.00;100727.88;4969263;28;20030;-71
2022/01/27 08:08:09;;;;;;;4.88;2.58;;;;;;;6.46;100.00;100730.50;4956443;28;20117;-72
2022/01/27 08:10:37;;;;;;;7.70;3.90;;;;;;;6.39;100.00;100724.88;4963705;28;20032;-71
2022/01/27 08:13:03;;;;;;;9.52;4.15;;;;;;;6.34;100.00;100719.72;4961139;28;20035;-72
2022/01/27 08:15:30;;;;;;;8.20;3.17;;;;;;;6.46;100.00;100725.16;4975984;28;20387;-72
2022/01/27 08:17:55;;;;;;;10.60;3.97;;;;;;;6.34;100.00;100717.03;4960637;28;20035;-73
2022/01/27 08:20:20;;;;;;;12.77;4.82;;;;;;;6.26;100.00;100707.19;4967648;28;20026;-72
2022/01/27 08:22:47;;;;;;;8.60;3.45;;;;;;;6.50;100.00;100714.56;4962852;28;20403;-72
2022/01/27 08:25:13;;;;;;;10.23;4.07;;;;;;;6.55;100.00;100707.13;4973087;28;20061;-72
2022/01/27 08:27:42;;;;;;;11.82;4.18;;;;;;;6.50;100.00;100707.34;4962759;28;20033;-72
2022/01/27 08:30:08;;;;;;;6.18;3.88;;;;;;;6.66;100.00;100712.91;4967937;28;20112;-70
2022/01/27 08:32:46;;;;;;;7.30;3.70;;;;;;;6.50;100.00;100698.53;4965207;28;20491;-73
2022/01/27 08:35:13;;;;;;;6.57;2.80;;;;;;;6.58;100.00;100705.72;4957896;28;20034;-69
2022/01/27 08:37:39;;;;;;;8.73;3.67;;;;;;;6.53;100.00;100701.34;4982889;28;20458;-72
2022/01/27 08:40:05;;;;;;;7.78;2.72;;;;;;;6.57;100.00;100696.91;4952146;28;20027;-73
2022/01/27 08:42:30;;;;;;;8.35;3.10;;;;;;;6.61;100.00;100689.78;4962376;28;20114;-74
2022/01/27 08:44:56;;;;;;;9.20;2.83;;;;;;;6.50;100.00;100702.00;4951850;28;20039;-72
2022/01/27 08:47:22;;;;;;;7.82;3.22;;;;;;;6.50;100.00;100695.84;4961977;28;20492;-71
2022/01/27 08:49:47;;;;;;;6.07;3.17;;;;;;;6.49;100.00;100686.25;4976822;28;20053;-71
2022/01/27 08:52:13;;;;;;;6.75;3.15;;;;;;;6.46;100.00;100693.06;4965330;28;20042;-72
2022/01/27 08:54:39;;;;;;;6.55;3.47;;;;;;;6.66;100.00;100678.88;4983354;28;20038;-72
2022/01/27 08:57:05;;;;;;;7.60;2.58;;;;;;;6.52;100.00;100672.25;4963486;28;20073;-72
2022/01/27 08:59:30;;;;;;;7.65;4.45;;;;;;;6.64;100.00;100686.44;4982401;28;20585;-72
2022/01/27 09:01:55;;;;;;;6.93;2.75;;;;;;;6.53;100.00;100677.25;4970194;28;20042;-72
2022/01/27 09:04:22;;;;;;;6.00;2.78;;;;;;;6.66;100.00;100680.78;4982440;28;20046;-72
2022/01/27 09:06:47;;;;;;;7.07;3.45;;;;;;;6.73;100.00;100667.66;4963548;28;20030;-70
2022/01/27 09:09:13;;;;;;;6.05;2.80;;;;;;;6.55;100.00;100675.03;4983716;28;20096;-73
2022/01/27 09:11:39;;;;;;;5.72;2.83;;;;;;;6.75;100.00;100673.47;4979797;28;20762;-72
2022/01/27 09:14:05;;;;;;;5.30;2.53;;;;;;;6.86;100.00;100663.91;4982176;28;20146;-73
2022/01/27 09:16:31;;;;;;;6.80;3.15;;;;;;;6.83;100.00;100661.91;4981589;28;20109;-73
2022/01/27 09:19:00;;;;;;;7.15;3.20;;;;;;;7.05;100.00;100667.66;4959179;28;20133;-71
2022/01/27 09:21:33;;;;;;;8.02;3.13;;;;;;;7.09;100.00;100657.84;4969255;28;20045;-73
2022/01/27 09:23:58;;;;;;;3.33;2.00;;;;;;;6.81;100.00;100667.59;4981870;28;20042;-72
2022/01/27 09:26:51;;;;;;;6.68;2.70;;;;;;;6.73;100.00;100655.06;4981143;28;20396;-73
2022/01/27 09:29:12;;;;;;;6.85;2.50;;;;;;;6.78;100.00;100646.81;4962123;28;20046;-72
2022/01/27 09:31:37;;;;;;;5.97;2.55;;;;;;;6.73;100.00;100663.09;4975222;28;20037;-73
2022/01/27 09:34:03;;;;;;;5.20;2.45;;;;;;;6.82;100.00;100657.66;4979304;28;20523;-73
2022/01/27 09:36:28;;;;;;;6.88;3.00;;;;;;;6.77;100.00;100660.53;4965287;28;20109;-73
2022/01/27 09:38:53;;;;;;;6.78;2.63;;;;;;;7.03;100.00;100648.47;4976316;28;20882;-73
2022/01/27 09:41:20;;;;;;;7.60;2.63;;;;;;;6.98;100.00;100651.38;4977318;28;20047;-72
2022/01/27 09:43:53;;;;;;;5.95;2.10;;;;;;;6.99;100.00;100652.91;4978753;28;20112;-70
2022/01/27 09:46:21;;;;;;;5.65;2.40;;;;;;;7.19;100.00;100649.41;4961314;28;20126;-73
2022/01/27 09:48:48;;;;;;;5.43;2.55;;;;;;;6.98;100.00;100653.25;4976175;28;20073;-73
2022/01/27 09:53:52;;;;;;;3.17;1.88;;;;;;;6.84;100.00;100648.19;4970574;28;20108;-72
2022/01/27 09:56:18;;;;;;;5.28;2.72;;;;;;;6.93;100.00;100659.59;4979049;28;20290;-72
2022/01/27 09:58:44;;;;;;;5.47;2.35;;;;;;;6.94;100.00;100655.03;4956428;28;20050;-73
2022/01/27 10:01:09;;;;;;;3.05;1.60;;;;;;;6.95;100.00;100657.34;4969397;28;20628;-72
2022/01/27 10:03:52;;;;;;;5.18;2.15;;;;;;;6.96;100.00;100658.94;4976675;28;20042;-73
2022/01/27 10:06:18;;;;;;;2.35;1.67;;;;;;;7.17;100.00;100664.22;4971115;28;20034;-71
2022/01/27 10:08:45;;;;;;;2.72;1.52;;;;;;;7.08;100.00;100661.63;4959815;28;20081;-71
2022/01/27 10:11:18;;;;;;;3.95;1.35;;;;;;;7.20;100.00;100655.56;4973398;28;20531;-72
2022/01/27 10:13:46;;;;;;;3.55;2.10;;;;;;;7.09;100.00;100654.38;4956716;28;20041;-72
2022/01/27 10:16:29;;;;;;;1.73;1.15;;;;;;;7.08;100.00;100645.56;4968230;28;20066;-72
2022/01/27 10:19:08;;;;;;;7.47;2.15;;;;;;;7.33;100.00;100657.13;4952161;28;20039;-72
2022/01/27 10:21:35;;;;;;;4.20;1.83;;;;;;;7.28;100.00;100643.94;4967947;28;20046;-73
2022/01/27 10:24:23;;;;;;;4.25;1.73;;;;;;;7.34;100.00;100645.28;4967750;28;20629;-72
2022/01/27 10:27:21;;;;;;;2.60;1.73;;;;;;;7.40;100.00;100653.88;4978325;28;20479;-72
2022/01/27 10:32:49;;;;;;;2.53;1.63;;;;;;;7.22;100.00;100638.00;4954908;28;20510;-72
2022/01/27 10:35:19;;;;;;;2.42;1.52;;;;;;;7.44;100.00;100646.75;4971785;28;20073;-71
2022/01/27 10:38:16;;;;;;;2.65;1.58;;;;;;;7.58;100.00;100652.56;4943062;28;20030;-72
2022/01/27 10:40:44;;;;;;;5.78;2.05;;;;;;;7.70;100.00;100648.00;4948832;28;20053;-73
2022/01/27 10:43:13;;;;;;;3.92;2.28;;;;;;;7.59;100.00;100654.91;4981675;28;20034;-73
2022/01/27 10:46:25;;;;;;;6.40;2.00;;;;;;;7.61;100.00;100662.59;4974582;28;20093;-73
2022/01/27 10:49:00;;;;;;;2.72;1.70;;;;;;;7.65;100.00;100656.25;4976090;28;20407;-73
2022/01/27 10:51:30;;;;;;;3.55;1.15;;;;;;;7.82;100.00;100652.59;4969303;28;20511;-72
2022/01/27 10:54:05;;;;;;;4.40;2.30;;;;;;;7.82;100.00;100657.94;4973999;28;20057;-73
2022/01/27 10:56:39;;;;;;;4.72;2.25;;;;;;;7.70;100.00;100660.63;4957674;28;20030;-72
2022/01/27 10:59:14;;;;;;;4.93;2.03;;;;;;;7.74;100.00;100656.91;4971029;28;20748;-73
2022/01/27 11:01:42;;;;;;;3.28;1.88;;;;;;;7.83;100.00;100657.59;4965613;28;20038;-72
2022/01/27 11:04:12;;;;;;;3.58;1.95;;;;;;;7.95;100.00;100652.25;4954482;28;20038;-73
2022/01/27 11:06:57;;;;;;;6.50;2.33;;;;;;;7.88;100.00;100653.91;4970999;28;20590;-73
2022/01/27 11:09:24;;;;;;;3.75;1.88;;;;;;;7.97;100.00;100649.22;4956295;28;20047;-71
2022/01/27 11:11:52;;;;;;;5.65;2.13;;;;;;;8.10;100.00;100667.63;4970743;28;20030;-73
2022/01/27 11:14:17;;;;;;;6.95;2.72;;;;;;;8.24;100.00;100651.19;4958223;28;20447;-73
2022/01/27 11:16:44;;;;;;;5.75;2.90;;;;;;;8.05;100.00;100634.91;4974717;28;20035;-70
2022/01/27 11:21:55;;;;;;;6.20;2.65;;;;;;;7.96;100.00;100631.56;4970069;28;20041;-72
2022/01/27 11:24:27;;;;;;;4.00;2.00;;;;;;;8.23;100.00;100630.84;4963537;28;20034;-71
2022/01/27 11:26:56;;;;;;;5.35;2.63;;;;;;;8.34;100.00;100631.19;4948836;28;20129;-71
2022/01/27 11:29:23;;;;;;;7.63;2.50;;;;;;;8.33;100.00;100625.03;4980978;28;20034;-71
2022/01/27 11:32:07;;;;;;;5.57;2.28;;;;;;;8.36;100.00;100628.94;4975451;28;20038;-72
2022/01/27 11:34:47;;;;;;;9.27;3.15;;;;;;;8.46;100.00;100625.78;4967856;28;20038;-72
2022/01/27 11:37:16;;;;;;;3.35;1.70;;;;;;;8.30;100.00;100620.34;4970798;28;20039;-72
2022/01/27 11:39:55;;;;;;;2.47;1.42;;;;;;;8.48;100.00;100631.59;4981523;28;20525;-73
2022/01/27 11:42:42;;;;;;;5.55;2.10;;;;;;;8.35;100.00;100622.00;4984747;28;20502;-74
2022/01/27 11:45:22;;;;;;;3.45;1.50;;;;;;;8.45;100.00;100627.69;4961329;28;20050;-72
2022/01/27 11:48:07;;;;;;;4.78;2.10;;;;;;;8.62;100.00;100631.97;4980942;28;20046;-71
2022/01/27 11:50:58;;;;;;;5.43;2.15;;;;;;;8.42;100.00;100628.34;4959424;28;20042;-73
2022/01/27 11:53:26;;;;;;;6.30;2.00;;;;;;;8.49;100.00;100628.56;4972644;28;20030;-73
2022/01/27 11:55:52;;;;;;;9.93;2.50;;;;;;;8.75;100.00;100641.56;4950950;28;20503;-73
2022/01/27 11:58:20;;;;;;;4.88;2.20;;;;;;;8.71;100.00;100636.06;4970111;28;20065;-73
2022/01/27 12:01:03;;;;;;;5.35;1.88;;;;;;;8.75;100.00;100636.94;4951649;28;20046;-73
2022/01/27 12:03:28;;;;;;;5.53;2.10;;;;;;;8.85;100.00;100641.03;4963740;28;20026;-73
2022/01/27 12:06:32;;;;;;;5.90;1.27;;;;;;;8.62;100.00;100613.97;4981641;28;20061;-72
2022/01/27 12:09:21;;;;;;;2.63;1.08;;;;;;;8.60;100.00;100618.09;4884925;29;20062;-72
2022/01/27 12:11:51;;;;;;;5.95;1.90;;;;;;;8.78;100.00;100620.16;4874758;29;20092;-71